Stony Run, Pennsylvania
Current Conditions -  °F | °C
As of 6:55 PM on Wednesday 26 Nov 2014 (Local Time) from KXLL Reporting Station
Light Snow Light Snow  
Wind Chill: 29°   Ceiling: 400
Heat Index: 34°   Visibility: 1.2mi
Dew Point: 32°   Wind: 6mph
Humidity: 93%   Direction: 320°NW
Pressure: 29.91"   Gusts: NA
Location:  40.62°N, 75.82°W
Report Text: KXLL 262355Z AUTO 32005KT 1 1/4SM -SN OVC004 01/00 A2991 RMK AO2 P0004
Loading
Personal Weather Stations






























Interactive Weather Map New forecast layout! Learn more

10-Day Weather Forecast

Advertisements
Track Severe Weather on mobile